Time;durP1;ratioP1;P1;durP2;ratioP2;P2;SDS_P1;SDS_P2;PMS_P1;PMS_P2;Temp;Humidity;BMP_temperature;BMP_pressure;BME280_temperature;BME280_humidity;BME280_pressure;Samples;Min_cycle;Max_cycle;Signal;HPM_P1;HPM_P2
2023/03/28 00:03:45;;;;;;;14.88;2.92;;;;;;;1.29;100.00;102707.22;10383213;28;20465;-81
2023/03/28 00:08:46;;;;;;;16.30;2.78;;;;;;;1.21;100.00;102707.66;10398916;28;20044;-81
2023/03/28 00:13:48;;;;;;;9.52;2.90;;;;;;;1.06;100.00;102709.44;10381741;28;20037;-81
2023/03/28 00:18:49;;;;;;;4.88;3.00;;;;;;;1.02;100.00;102707.91;10381585;28;20116;-81
2023/03/28 00:23:52;;;;;;;1.77;1.67;;;;;;;0.96;100.00;102707.38;10381964;28;20504;-81
2023/03/28 00:28:53;;;;;;;16.67;2.60;;;;;;;0.95;100.00;102703.03;10396613;28;20405;-81
2023/03/28 00:33:54;;;;;;;2.28;2.08;;;;;;;0.98;100.00;102701.03;10381040;28;20041;-81
2023/03/28 00:38:56;;;;;;;16.48;3.03;;;;;;;0.92;100.00;102702.25;10396925;28;20052;-81
2023/03/28 00:43:57;;;;;;;3.97;2.95;;;;;;;1.00;100.00;102704.47;10380697;28;20033;-81
2023/03/28 00:49:11;;;;;;;17.48;2.03;;;;;;;0.96;100.00;102696.72;10395786;28;20041;-81
2023/03/28 00:54:13;;;;;;;3.78;2.30;;;;;;;0.92;100.00;102696.06;10379849;28;20124;-81
2023/03/28 00:59:16;;;;;;;4.00;2.15;;;;;;;0.91;100.00;102695.19;10379142;28;20525;-81
2023/03/28 01:04:19;;;;;;;7.82;2.03;;;;;;;0.93;100.00;102692.47;10378336;28;20045;-81
2023/03/28 01:09:20;;;;;;;2.97;2.55;;;;;;;0.92;100.00;102686.22;10395878;28;20113;-81
2023/03/28 01:14:21;;;;;;;3.33;2.38;;;;;;;0.91;100.00;102681.00;10380753;28;20038;-81
2023/03/28 01:19:43;;;;;;;7.22;3.40;;;;;;;0.80;100.00;102672.75;10395234;28;20053;-81
2023/03/28 01:25:19;;;;;;;5.03;1.83;;;;;;;0.86;100.00;102667.06;10380359;28;20136;-81
2023/03/28 01:30:19;;;;;;;2.42;2.22;;;;;;;0.83;100.00;102675.25;10394435;28;20037;-81
2023/03/28 01:35:32;;;;;;;6.50;2.47;;;;;;;0.79;100.00;102673.72;10379275;28;20026;-81
2023/03/28 01:40:58;;;;;;;2.50;1.70;;;;;;;0.61;100.00;102676.53;10393164;28;20466;-81
2023/03/28 01:46:15;;;;;;;8.43;2.63;;;;;;;0.55;100.00;102666.22;10377837;28;20030;-82
2023/03/28 01:51:47;;;;;;;5.10;3.05;;;;;;;0.51;100.00;102677.13;10378640;28;20030;-81
2023/03/28 01:57:09;;;;;;;7.57;2.63;;;;;;;0.42;100.00;102670.53;10375681;28;20141;-81
2023/03/28 02:02:33;;;;;;;4.50;3.15;;;;;;;0.37;100.00;102685.94;10377961;28;20113;-81
2023/03/28 02:07:33;;;;;;;2.35;2.10;;;;;;;0.33;100.00;102676.41;10391656;28;20030;-81
2023/03/28 02:12:36;;;;;;;4.20;2.38;;;;;;;0.21;100.00;102673.47;10392459;28;20117;-81
2023/03/28 02:17:42;;;;;;;12.70;3.22;;;;;;;0.23;100.00;102663.59;10392365;28;20034;-82
2023/03/28 02:22:48;;;;;;;2.77;2.40;;;;;;;0.17;100.00;102661.28;10390793;28;20390;-81
2023/03/28 02:27:51;;;;;;;;;;;;;;;0.42;100.00;102655.41;10359830;28;20065;-81
2023/03/28 02:32:57;;;;;;;5.43;2.58;;;;;;;0.46;100.00;102645.44;10376722;28;19996;-81
2023/03/28 02:38:16;;;;;;;;;;;;;;;0.27;100.00;102653.63;10378179;28;20040;-81
2023/03/28 02:43:46;;;;;;;7.22;2.95;;;;;;;0.33;100.00;102652.41;10377599;28;19917;-81
2023/03/28 02:49:28;;;;;;;3.58;2.10;;;;;;;0.33;100.00;102649.75;10376833;28;20087;-81
2023/03/28 02:54:41;;;;;;;3.03;2.33;;;;;;;0.27;100.00;102650.97;10370323;28;20477;-81
2023/03/28 02:59:47;;;;;;;7.38;2.20;;;;;;;0.26;100.00;102641.25;10390753;28;20087;-81
2023/03/28 03:04:49;;;;;;;4.73;2.67;;;;;;;0.37;100.00;102648.63;10391313;28;20045;-81
2023/03/28 03:09:52;;;;;;;7.97;3.13;;;;;;;0.39;100.00;102644.06;10376617;28;20037;-81
2023/03/28 03:14:53;;;;;;;8.70;3.30;;;;;;;0.36;100.00;102650.44;10358210;28;20037;-81
2023/03/28 03:19:54;;;;;;;2.88;2.17;;;;;;;0.40;100.00;102646.63;10374227;28;20062;-81
2023/03/28 03:24:56;;;;;;;3.92;2.40;;;;;;;0.31;100.00;102633.84;10379541;28;20060;-81
2023/03/28 03:29:56;;;;;;;9.40;2.47;;;;;;;0.39;100.00;102633.41;10378003;28;20125;-81
2023/03/28 03:34:57;;;;;;;10.70;3.10;;;;;;;0.46;100.00;102632.09;10374279;28;20045;-81
2023/03/28 03:39:57;;;;;;;5.15;2.67;;;;;;;0.51;100.00;102621.16;10373728;28;20034;-81
2023/03/28 03:44:58;;;;;;;3.58;2.10;;;;;;;0.45;100.00;102617.91;10377448;28;20041;-81
2023/03/28 03:49:58;;;;;;;9.75;3.08;;;;;;;0.52;100.00;102613.09;10395342;28;20040;-81
2023/03/28 03:54:59;;;;;;;15.23;2.40;;;;;;;0.54;100.00;102615.66;10390169;28;20034;-81
2023/03/28 04:00:00;;;;;;;8.43;2.35;;;;;;;0.59;100.00;102627.75;10374244;28;20474;-81
2023/03/28 04:05:01;;;;;;;8.18;2.28;;;;;;;0.59;100.00;102617.09;10374817;28;20496;-82
2023/03/28 04:10:02;;;;;;;8.52;2.67;;;;;;;0.76;100.00;102620.56;10373469;28;20133;-82
2023/03/28 04:15:04;;;;;;;6.65;3.38;;;;;;;0.82;100.00;102614.88;10373480;28;20145;-81
2023/03/28 04:20:10;;;;;;;3.60;2.40;;;;;;;0.84;100.00;102615.66;10374325;28;20065;-82
2023/03/28 04:25:12;;;;;;;5.72;3.13;;;;;;;0.89;100.00;102616.22;10373107;28;20046;-82
2023/03/28 04:30:16;;;;;;;9.20;2.60;;;;;;;0.97;100.00;102618.44;10373434;28;20504;-82
2023/03/28 04:35:17;;;;;;;13.65;2.97;;;;;;;0.99;100.00;102611.19;10373016;28;20058;-82
2023/03/28 04:40:17;;;;;;;4.53;2.47;;;;;;;1.09;100.00;102615.88;10377157;28;20070;-81
2023/03/28 04:45:18;;;;;;;15.70;2.83;;;;;;;1.15;100.00;102615.50;10388638;28;20120;-80
2023/03/28 04:50:18;;;;;;;4.35;3.38;;;;;;;1.15;100.00;102618.19;10420761;28;20037;-80
2023/03/28 04:55:19;;;;;;;5.05;2.85;;;;;;;1.16;100.00;102617.22;10395847;28;20053;-80
2023/03/28 05:00:21;;;;;;;7.18;3.03;;;;;;;1.22;100.00;102612.47;10381992;28;20057;-81
2023/03/28 05:05:21;;;;;;;6.97;3.13;;;;;;;1.21;100.00;102616.06;10379855;28;20473;-79
2023/03/28 05:10:22;;;;;;;8.13;3.13;;;;;;;1.18;100.00;102614.44;10379195;28;20042;-82
2023/03/28 05:15:22;;;;;;;7.07;3.10;;;;;;;1.18;100.00;102617.09;10325784;28;20077;-82
2023/03/28 05:20:26;;;;;;;9.73;3.65;;;;;;;1.11;100.00;102618.44;10388728;28;20382;-82
2023/03/28 05:25:26;;;;;;;4.63;3.40;;;;;;;1.24;100.00;102626.56;10394741;28;20045;-82
2023/03/28 05:30:27;;;;;;;6.85;2.83;;;;;;;1.29;100.00;102625.31;10377424;28;20124;-83
2023/03/28 05:35:27;;;;;;;9.55;3.70;;;;;;;1.49;100.00;102626.75;10393235;28;20038;-82
2023/03/28 05:40:28;;;;;;;6.78;3.53;;;;;;;1.58;100.00;102625.31;10377341;28;20125;-83
2023/03/28 05:45:28;;;;;;;9.73;4.32;;;;;;;1.63;100.00;102623.22;10399903;28;20026;-82
2023/03/28 05:50:29;;;;;;;17.92;6.00;;;;;;;1.76;100.00;102618.81;10384270;28;20355;-83
2023/03/28 05:55:29;;;;;;;11.30;4.00;;;;;;;1.83;100.00;102616.63;10375936;28;20038;-83
2023/03/28 06:00:29;;;;;;;8.52;3.83;;;;;;;1.92;100.00;102618.69;10393713;28;20053;-82
2023/03/28 06:05:30;;;;;;;6.22;3.92;;;;;;;2.12;100.00;102629.91;10399540;28;20042;-82
2023/03/28 06:10:30;;;;;;;3.38;2.67;;;;;;;2.26;100.00;102627.16;10387136;28;20073;-82
2023/03/28 06:15:31;;;;;;;17.50;4.22;;;;;;;2.63;100.00;102630.09;10378374;28;20041;-82
2023/03/28 06:20:31;;;;;;;11.52;3.92;;;;;;;2.82;100.00;102629.69;10376564;28;20037;-82
2023/03/28 06:25:32;;;;;;;6.78;3.40;;;;;;;3.31;100.00;102628.97;10395255;28;20058;-82
2023/03/28 06:30:32;;;;;;;6.97;4.15;;;;;;;4.16;100.00;102624.63;10374671;28;20080;-83
2023/03/28 06:35:33;;;;;;;9.52;4.13;;;;;;;5.17;100.00;102619.63;10359236;28;20104;-82
2023/03/28 06:40:33;;;;;;;7.70;3.90;;;;;;;5.33;100.00;102611.22;10377531;28;20438;-82
2023/03/28 06:45:34;;;;;;;9.48;3.90;;;;;;;5.75;100.00;102614.97;10377342;28;20454;-82
2023/03/28 06:50:34;;;;;;;4.53;4.13;;;;;;;6.35;100.00;102625.38;10391795;28;20072;-83
2023/03/28 06:55:35;;;;;;;7.05;4.80;;;;;;;6.38;100.00;102617.94;10392144;28;20128;-83
2023/03/28 07:00:35;;;;;;;9.13;4.10;;;;;;;7.08;100.00;102613.75;10374646;28;20030;-83
2023/03/28 07:05:39;;;;;;;10.65;4.93;;;;;;;7.05;100.00;102615.88;10376825;28;20030;-82
2023/03/28 07:10:40;;;;;;;10.43;5.05;;;;;;;6.64;100.00;102615.75;10392367;28;20117;-83
2023/03/28 07:15:40;;;;;;;5.95;4.10;;;;;;;7.19;100.00;102611.00;10391753;28;20034;-83
2023/03/28 07:20:40;;;;;;;9.18;3.75;;;;;;;7.45;100.00;102613.25;10377126;28;20124;-83
2023/03/28 07:25:41;;;;;;;5.13;3.58;;;;;;;7.80;100.00;102620.06;10378460;28;20129;-83
2023/03/28 07:30:41;;;;;;;6.85;3.75;;;;;;;7.93;100.00;102612.56;10378625;28;20041;-82
2023/03/28 07:35:42;;;;;;;8.40;3.90;;;;;;;7.76;100.00;102608.69;10385164;28;20124;-82
2023/03/28 07:40:42;;;;;;;9.60;3.45;;;;;;;7.39;100.00;102611.94;10366025;28;20439;-83
2023/03/28 07:45:45;;;;;;;4.13;2.75;;;;;;;6.90;100.00;102601.91;10391628;28;20034;-82
2023/03/28 07:50:45;;;;;;;7.28;4.85;;;;;;;6.94;100.00;102600.63;10391937;28;20040;-83
2023/03/28 07:55:46;;;;;;;3.05;1.42;;;;;;;7.12;92.09;102598.22;10389852;28;20060;-83
2023/03/28 08:00:46;;;;;;;4.38;2.60;;;;;;;7.48;100.00;102606.75;10373689;28;20104;-83
2023/03/28 08:05:50;;;;;;;1.80;1.70;;;;;;;7.82;97.52;102601.91;10376174;28;20057;-83
2023/03/28 08:10:50;;;;;;;6.07;2.78;;;;;;;7.51;96.34;102609.16;10375541;28;20042;-83
2023/03/28 08:15:51;;;;;;;23.10;3.65;;;;;;;7.44;89.29;102603.47;10359507;28;20042;-82
2023/03/28 08:20:57;;;;;;;4.75;2.92;;;;;;;7.38;95.77;102601.31;10393569;28;20034;-83
2023/03/28 08:26:04;;;;;;;7.07;2.95;;;;;;;7.62;91.25;102599.13;10381531;28;20064;-83
2023/03/28 08:31:12;;;;;;;6.65;3.42;;;;;;;7.73;92.87;102608.13;10383744;28;20065;-83
2023/03/28 08:36:13;;;;;;;13.95;3.08;;;;;;;7.63;85.97;102605.41;10364850;28;20481;-82
2023/03/28 08:41:24;;;;;;;7.65;3.80;;;;;;;7.51;87.81;102604.63;10396180;28;20026;-83
2023/03/28 08:46:24;;;;;;;9.55;3.55;;;;;;;7.44;85.54;102601.63;10380269;28;20025;-82
2023/03/28 08:51:26;;;;;;;4.57;3.45;;;;;;;7.56;85.06;102604.22;10395545;28;20038;-83
2023/03/28 08:56:27;;;;;;;7.20;3.60;;;;;;;7.78;75.04;102605.84;10380689;28;20458;-83
2023/03/28 09:01:28;;;;;;;4.30;3.38;;;;;;;7.85;68.90;102590.84;10395702;28;20029;-83
2023/03/28 09:06:35;;;;;;;4.68;3.30;;;;;;;8.01;70.19;102590.28;10380794;28;20524;-83
2023/03/28 09:12:02;;;;;;;3.63;3.03;;;;;;;7.80;72.42;102588.53;10380203;28;20029;-82
2023/03/28 09:17:15;;;;;;;2.97;2.00;;;;;;;7.83;66.46;102582.88;10380431;28;20033;-83
2023/03/28 09:22:18;;;;;;;5.35;2.72;;;;;;;7.89;69.09;102571.53;10379904;28;20034;-83
2023/03/28 09:27:26;;;;;;;2.75;2.08;;;;;;;7.72;64.06;102566.78;10394610;28;20057;-83
2023/03/28 09:32:29;;;;;;;2.15;1.92;;;;;;;7.67;62.46;102566.38;10376961;28;20425;-84
2023/03/28 09:37:50;;;;;;;7.18;2.42;;;;;;;7.43;62.50;102564.88;10377549;28;20041;-83
2023/03/28 09:42:59;;;;;;;3.65;2.55;;;;;;;7.33;66.08;102553.19;10377651;28;20390;-83
2023/03/28 09:48:00;;;;;;;2.92;2.50;;;;;;;7.34;60.05;102548.66;10392828;28;20033;-83
2023/03/28 09:53:01;;;;;;;6.75;2.65;;;;;;;7.57;61.34;102533.16;10377878;28;20061;-83
2023/03/28 09:58:06;;;;;;;5.10;2.65;;;;;;;7.40;62.67;102535.50;10393566;28;20058;-84
2023/03/28 10:03:21;;;;;;;2.30;2.15;;;;;;;7.61;65.63;102524.63;10377899;28;20026;-83
2023/03/28 10:08:24;;;;;;;2.67;2.13;;;;;;;7.67;62.86;102524.09;10377052;28;20408;-83
2023/03/28 10:13:25;;;;;;;2.08;1.88;;;;;;;7.90;58.88;102521.13;10377839;28;20038;-83
2023/03/28 10:18:26;;;;;;;3.03;2.30;;;;;;;7.90;57.52;102507.66;10377522;28;20485;-82
2023/03/28 10:23:26;;;;;;;4.13;2.60;;;;;;;8.41;55.90;102497.59;10378424;28;20068;-83
2023/03/28 10:28:34;;;;;;;4.00;2.83;;;;;;;8.62;56.74;102476.66;10377319;28;20057;-83
2023/03/28 10:33:35;;;;;;;6.80;3.15;;;;;;;8.74;59.91;102467.41;10406920;28;20025;-84
2023/03/28 10:38:37;;;;;;;9.95;3.45;;;;;;;8.84;51.66;102476.31;10376272;28;20112;-83
2023/03/28 10:43:39;;;;;;;2.92;1.83;;;;;;;8.42;50.38;102459.63;10376147;28;20037;-83
2023/03/28 10:48:40;;;;;;;7.38;2.20;;;;;;;9.17;53.40;102456.97;10375542;28;20065;-82
2023/03/28 10:53:56;;;;;;;3.08;2.38;;;;;;;9.59;49.98;102457.28;10375560;28;20041;-83
2023/03/28 10:59:11;;;;;;;8.18;3.60;;;;;;;8.90;50.72;102455.94;10375680;28;20026;-82
2023/03/28 11:04:27;;;;;;;8.95;2.95;;;;;;;8.32;53.93;102450.69;10374830;28;20026;-84
2023/03/28 11:09:48;;;;;;;6.35;3.70;;;;;;;8.63;55.40;102437.84;10375087;28;20048;-83
2023/03/28 11:15:02;;;;;;;4.63;3.63;;;;;;;7.97;55.70;102432.41;10389471;28;20030;-83
2023/03/28 11:20:25;;;;;;;14.00;5.75;;;;;;;8.07;61.54;102436.81;10373635;28;20030;-83
2023/03/28 11:26:01;;;;;;;5.95;4.13;;;;;;;8.26;57.85;102405.38;10365057;28;20124;-84
2023/03/28 11:31:01;;;;;;;9.23;5.90;;;;;;;8.56;60.64;102389.00;10388686;28;20034;-83
2023/03/28 11:36:25;;;;;;;8.10;4.72;;;;;;;9.68;59.61;102375.22;10372758;28;20601;-82
2023/03/28 11:41:29;;;;;;;5.65;3.17;;;;;;;10.76;56.19;102367.69;10372882;28;20378;-83
2023/03/28 11:46:38;;;;;;;6.90;3.25;;;;;;;11.00;48.17;102342.50;10390022;28;20114;-83
2023/03/28 11:51:59;;;;;;;5.75;3.65;;;;;;;11.38;48.83;102351.06;10372445;28;20034;-84
2023/03/28 11:57:09;;;;;;;5.53;3.42;;;;;;;12.39;46.84;102328.13;10383482;28;20076;-84
2023/03/28 12:02:39;;;;;;;15.02;5.35;;;;;;;11.64;44.97;102334.63;10384327;28;20108;-82
2023/03/28 12:07:44;;;;;;;5.22;3.03;;;;;;;11.55;45.69;102331.09;10376024;28;20064;-83
2023/03/28 12:13:06;;;;;;;6.57;3.17;;;;;;;11.23;47.59;102312.94;10397373;28;20457;-83
2023/03/28 12:18:24;;;;;;;4.97;2.53;;;;;;;10.11;47.13;102316.69;10383941;28;20029;-83
2023/03/28 12:23:31;;;;;;;4.97;2.47;;;;;;;9.83;46.28;102307.00;10381788;28;20060;-83
2023/03/28 12:28:34;;;;;;;;;;;;;;;9.56;47.75;102295.31;10381274;28;20038;-83
2023/03/28 12:34:16;;;;;;;3.78;2.67;;;;;;;9.43;47.86;102290.31;10381431;28;19914;-83
2023/03/28 12:39:33;;;;;;;3.40;2.83;;;;;;;9.37;51.13;102279.28;10346811;28;20133;-83
2023/03/28 12:44:50;;;;;;;14.23;2.92;;;;;;;9.98;51.02;102273.81;10391447;28;20033;-83
2023/03/28 12:49:55;;;;;;;6.40;3.03;;;;;;;10.78;49.05;102270.81;10380431;28;20046;-83
2023/03/28 12:54:59;;;;;;;7.53;1.73;;;;;;;10.92;48.18;102264.75;10363387;28;20129;-83
2023/03/28 13:00:24;;;;;;;2.92;2.63;;;;;;;10.66;52.05;102261.31;10379077;28;20084;-83
2023/03/28 13:05:43;;;;;;;14.43;3.40;;;;;;;9.91;50.89;102243.00;10395266;28;20109;-83
2023/03/28 13:10:45;;;;;;;3.47;2.08;;;;;;;9.50;52.74;102242.72;10379636;28;20124;-83
2023/03/28 13:16:13;;;;;;;5.53;2.70;;;;;;;9.44;54.83;102234.38;10378068;28;20073;-83
2023/03/28 13:21:59;;;;;;;9.52;4.20;;;;;;;9.60;56.63;102244.47;10376662;28;20450;-84
2023/03/28 13:27:23;;;;;;;10.52;2.95;;;;;;;9.54;57.72;102243.28;10379919;28;20042;-83
2023/03/28 13:32:23;;;;;;;5.38;2.00;;;;;;;9.57;57.12;102240.22;10373950;28;20500;-82
2023/03/28 13:37:45;;;;;;;5.28;2.47;;;;;;;9.24;58.05;102229.16;10395026;28;20078;-83
2023/03/28 13:42:56;;;;;;;5.10;3.00;;;;;;;9.31;64.46;102223.97;10377266;28;20056;-83
2023/03/28 13:47:57;;;;;;;5.93;3.38;;;;;;;9.27;60.75;102211.78;10360654;28;20034;-83
2023/03/28 13:52:58;;;;;;;3.67;2.53;;;;;;;9.33;65.87;102208.47;10377326;28;20045;-83
2023/03/28 13:58:01;;;;;;;13.40;3.42;;;;;;;9.37;62.35;102195.47;10394319;28;20038;-82
2023/03/28 14:03:03;;;;;;;6.30;3.28;;;;;;;9.75;63.50;102195.03;10393603;28;20135;-83
2023/03/28 14:08:13;;;;;;;4.80;3.25;;;;;;;10.07;62.50;102187.25;10391966;28;20033;-83
2023/03/28 14:13:15;;;;;;;8.15;3.60;;;;;;;10.41;60.56;102179.97;10376497;28;20038;-83
2023/03/28 14:18:17;;;;;;;4.78;3.17;;;;;;;10.38;59.46;102169.47;10394018;28;20025;-83
2023/03/28 14:23:27;;;;;;;6.28;2.80;;;;;;;9.95;62.74;102157.75;10393820;28;20058;-83
2023/03/28 14:28:28;;;;;;;6.95;3.33;;;;;;;10.10;65.03;102149.03;10391006;28;20139;-83
2023/03/28 14:33:32;;;;;;;2.88;2.67;;;;;;;9.94;62.59;102139.84;10391155;28;20054;-82
2023/03/28 14:38:35;;;;;;;11.63;4.13;;;;;;;9.71;65.92;102139.56;10375300;28;20390;-83
2023/03/28 14:43:35;;;;;;;3.47;2.92;;;;;;;9.91;70.00;102128.50;10391636;28;20490;-84
2023/03/28 14:48:36;;;;;;;5.82;3.45;;;;;;;9.46;69.76;102122.38;10391998;28;20034;-83
2023/03/28 14:53:40;;;;;;;6.30;3.53;;;;;;;9.23;74.46;102105.00;10392121;28;20500;-83
2023/03/28 14:58:42;;;;;;;4.35;3.20;;;;;;;8.79;79.18;102096.91;10407504;28;20068;-82
2023/03/28 15:03:44;;;;;;;5.07;2.60;;;;;;;8.72;80.52;102091.28;10379625;28;20121;-81
2023/03/28 15:08:45;;;;;;;4.85;3.13;;;;;;;8.77;82.34;102080.84;10374262;28;20022;-83
2023/03/28 15:13:50;;;;;;;7.32;4.07;;;;;;;8.70;83.96;102076.25;10374451;28;20044;-83
2023/03/28 15:19:05;;;;;;;8.90;4.00;;;;;;;8.68;86.41;102068.31;10372987;28;20553;-83
2023/03/28 15:24:09;;;;;;;9.70;3.25;;;;;;;8.32;87.59;102048.53;10375586;28;20136;-82
2023/03/28 15:29:13;;;;;;;7.93;3.85;;;;;;;8.26;88.24;102050.00;10372793;28;20084;-82
2023/03/28 15:34:26;;;;;;;12.77;4.78;;;;;;;8.18;87.54;102036.44;10389970;28;20465;-82
2023/03/28 15:39:35;;;;;;;9.60;3.47;;;;;;;8.14;87.90;102041.31;10395758;28;20030;-82
2023/03/28 15:44:38;;;;;;;4.82;3.85;;;;;;;8.09;90.00;102035.50;10376704;28;20073;-83
2023/03/28 15:49:38;;;;;;;6.85;3.85;;;;;;;7.71;95.34;102027.69;10391134;28;20100;-82
2023/03/28 15:54:41;;;;;;;6.40;5.05;;;;;;;7.74;95.52;102027.38;10393753;28;20347;-82
2023/03/28 15:59:47;;;;;;;7.68;4.47;;;;;;;7.79;95.60;102025.09;10373492;28;20037;-82
2023/03/28 16:04:56;;;;;;;6.70;3.22;;;;;;;7.58;100.00;102009.16;10373997;28;20044;-83
2023/03/28 16:09:56;;;;;;;6.38;4.93;;;;;;;7.55;100.00;101999.53;10374191;28;20034;-82
2023/03/28 16:14:57;;;;;;;5.63;4.43;;;;;;;7.56;100.00;101997.69;10375039;28;20065;-83
2023/03/28 16:19:57;;;;;;;6.05;4.10;;;;;;;7.62;100.00;102000.63;10375381;28;20037;-83
2023/03/28 16:24:58;;;;;;;9.15;4.97;;;;;;;7.51;100.00;101990.06;10375536;28;20142;-81
2023/03/28 16:29:58;;;;;;;4.80;4.10;;;;;;;7.50;100.00;101998.28;10371843;28;20458;-80
2023/03/28 16:34:59;;;;;;;7.47;4.93;;;;;;;7.33;100.00;101987.31;10374049;28;20056;-79
2023/03/28 16:39:59;;;;;;;7.18;4.72;;;;;;;7.35;100.00;101962.91;10373609;28;20065;-79
2023/03/28 16:44:59;;;;;;;5.30;4.25;;;;;;;7.34;100.00;101971.97;10395319;28;20038;-81
2023/03/28 16:50:00;;;;;;;6.97;5.25;;;;;;;7.24;100.00;101958.56;10378882;28;20042;-79
2023/03/28 16:55:00;;;;;;;14.38;5.53;;;;;;;7.30;100.00;101949.03;10379621;28;20440;-80
2023/03/28 17:00:03;;;;;;;7.88;5.88;;;;;;;7.18;100.00;101951.09;10379864;28;20033;-80
2023/03/28 17:05:04;;;;;;;7.53;5.43;;;;;;;7.02;100.00;101934.72;10395081;28;20026;-80
2023/03/28 17:10:05;;;;;;;13.88;6.22;;;;;;;7.07;100.00;101922.50;10380672;28;20038;-80
2023/03/28 17:15:07;;;;;;;5.68;4.28;;;;;;;7.10;100.00;101921.38;10381249;28;20050;-79
2023/03/28 17:20:08;;;;;;;6.90;5.35;;;;;;;7.08;100.00;101917.97;10376836;28;20127;-81
2023/03/28 17:25:09;;;;;;;8.48;5.43;;;;;;;7.08;100.00;101926.03;10380356;28;20470;-80
2023/03/28 17:30:11;;;;;;;3.50;3.10;;;;;;;7.13;100.00;101915.69;10377453;28;20048;-81
2023/03/28 17:35:12;;;;;;;10.77;4.47;;;;;;;7.09;100.00;101908.91;10392563;28;20042;-82
2023/03/28 17:40:14;;;;;;;9.07;3.97;;;;;;;7.07;100.00;101900.13;10395422;28;20439;-82
2023/03/28 17:45:15;;;;;;;4.00;3.70;;;;;;;6.92;100.00;101908.72;10394724;28;20049;-82
2023/03/28 17:50:15;;;;;;;4.50;4.20;;;;;;;6.90;100.00;101907.16;10379743;28;20040;-81
2023/03/28 17:55:16;;;;;;;5.68;4.20;;;;;;;6.72;100.00;101913.31;10362515;28;20504;-81
2023/03/28 18:00:17;;;;;;;6.07;4.22;;;;;;;6.64;100.00;101915.91;10376598;28;20041;-80
2023/03/28 18:05:17;;;;;;;8.75;5.00;;;;;;;6.55;100.00;101929.38;10377402;28;20422;-80
2023/03/28 18:10:18;;;;;;;6.13;3.15;;;;;;;6.29;100.00;101917.41;10376521;28;20038;-80
2023/03/28 18:15:18;;;;;;;7.50;3.35;;;;;;;6.33;100.00;101919.81;10377311;28;20033;-80
2023/03/28 18:20:19;;;;;;;3.75;3.30;;;;;;;6.29;100.00;101922.78;10393432;28;20480;-81
2023/03/28 18:25:19;;;;;;;4.95;2.53;;;;;;;6.31;100.00;101908.31;10377336;28;20112;-81
2023/03/28 18:30:20;;;;;;;8.57;3.83;;;;;;;6.27;100.00;101903.25;10377316;28;20033;-80
2023/03/28 18:35:20;;;;;;;7.18;3.20;;;;;;;6.12;100.00;101898.44;10375594;28;20124;-80
2023/03/28 18:40:21;;;;;;;4.28;3.78;;;;;;;6.02;100.00;101895.78;10374770;28;20045;-80
2023/03/28 18:45:22;;;;;;;5.25;4.30;;;;;;;5.89;100.00;101871.84;10375405;28;20070;-79
2023/03/28 18:50:22;;;;;;;6.20;5.13;;;;;;;5.81;100.00;101869.88;10375479;28;20454;-78
2023/03/28 18:55:23;;;;;;;6.88;3.33;;;;;;;5.81;100.00;101861.81;10373382;28;20061;-78
2023/03/28 19:00:23;;;;;;;15.80;5.30;;;;;;;5.75;100.00;101854.31;10375383;28;20433;-78
2023/03/28 19:05:23;;;;;;;4.68;3.25;;;;;;;5.74;100.00;101838.31;10388884;28;20054;-79
2023/03/28 19:10:24;;;;;;;10.30;5.93;;;;;;;5.78;100.00;101835.22;10389746;28;20135;-79
2023/03/28 19:15:25;;;;;;;8.07;5.75;;;;;;;5.72;100.00;101830.41;10373797;28;20052;-82
2023/03/28 19:20:25;;;;;;;12.35;6.03;;;;;;;5.79;100.00;101807.34;10372911;28;20140;-79
2023/03/28 19:25:26;;;;;;;7.75;5.65;;;;;;;5.73;100.00;101807.91;10375276;28;20482;-81
2023/03/28 19:30:29;;;;;;;8.95;6.60;;;;;;;5.72;100.00;101816.97;10372147;28;20037;-79
2023/03/28 19:35:29;;;;;;;5.03;4.47;;;;;;;5.63;100.00;101825.91;10374825;28;20064;-78
2023/03/28 19:40:30;;;;;;;9.57;4.93;;;;;;;5.58;100.00;101826.34;10372353;28;20030;-80
2023/03/28 19:45:30;;;;;;;7.80;4.00;;;;;;;5.47;100.00;101814.88;10389532;28;20441;-79
2023/03/28 19:50:32;;;;;;;8.52;3.78;;;;;;;5.49;100.00;101824.50;10373409;28;20061;-80
2023/03/28 19:55:32;;;;;;;7.70;3.72;;;;;;;5.49;100.00;101824.50;10373039;28;20385;-80
2023/03/28 20:00:33;;;;;;;2.83;2.63;;;;;;;5.43;100.00;101817.00;10382297;28;20045;-80
2023/03/28 20:05:33;;;;;;;4.38;3.45;;;;;;;5.42;100.00;101795.63;10360204;28;20444;-80
2023/03/28 20:10:40;;;;;;;3.05;2.78;;;;;;;5.40;100.00;101790.44;10393426;28;20054;-79
2023/03/28 20:15:41;;;;;;;4.35;3.13;;;;;;;5.29;100.00;101777.97;10376995;28;20481;-83
2023/03/28 20:20:42;;;;;;;5.03;4.63;;;;;;;5.31;100.00;101767.09;10386484;28;20030;-79
2023/03/28 20:25:43;;;;;;;4.05;3.75;;;;;;;5.38;100.00;101770.91;10380888;28;20132;-79
2023/03/28 20:30:44;;;;;;;9.52;4.10;;;;;;;5.34;100.00;101781.09;10396960;28;20458;-79
2023/03/28 20:35:55;;;;;;;5.20;2.78;;;;;;;5.26;100.00;101758.59;10383737;28;20038;-82
2023/03/28 20:40:56;;;;;;;6.32;4.50;;;;;;;5.24;100.00;101763.28;10380340;28;20041;-82
2023/03/28 20:46:00;;;;;;;3.47;3.17;;;;;;;5.24;100.00;101758.75;10397316;28;20121;-83
2023/03/28 20:51:12;;;;;;;3.03;2.72;;;;;;;5.24;100.00;101753.41;10380883;28;20382;-82
2023/03/28 20:56:13;;;;;;;5.38;3.75;;;;;;;5.35;100.00;101750.53;10399791;28;20030;-82
2023/03/28 21:01:15;;;;;;;3.92;2.53;;;;;;;5.34;100.00;101756.91;10380563;28;20117;-83
2023/03/28 21:06:28;;;;;;;5.30;3.65;;;;;;;5.41;100.00;101750.97;10393473;28;20389;-82
2023/03/28 21:11:30;;;;;;;3.10;2.90;;;;;;;5.39;100.00;101755.63;10394384;28;20077;-82
2023/03/28 21:16:31;;;;;;;3.40;3.08;;;;;;;5.38;100.00;101748.56;10379625;28;20025;-82
2023/03/28 21:21:32;;;;;;;3.38;2.92;;;;;;;5.36;100.00;101746.88;10377848;28;20152;-81
2023/03/28 21:26:33;;;;;;;5.78;2.75;;;;;;;5.34;100.00;101751.53;10379841;28;20541;-82
2023/03/28 21:31:33;;;;;;;4.57;3.63;;;;;;;5.36;100.00;101738.00;10378281;28;20037;-82
2023/03/28 21:36:34;;;;;;;5.03;3.67;;;;;;;5.40;100.00;101722.44;10402043;28;20033;-83
2023/03/28 21:41:36;;;;;;;3.00;2.67;;;;;;;5.38;100.00;101714.50;10378576;28;20454;-82
2023/03/28 21:46:37;;;;;;;4.47;3.65;;;;;;;5.39;100.00;101718.88;10393059;28;20168;-82
2023/03/28 21:51:37;;;;;;;3.53;3.22;;;;;;;5.50;100.00;101713.34;10393285;28;20452;-82
2023/03/28 21:56:38;;;;;;;8.70;2.85;;;;;;;5.43;100.00;101706.03;10379088;28;20120;-82
2023/03/28 22:01:38;;;;;;;3.72;3.05;;;;;;;5.42;100.00;101709.69;10392230;28;20113;-82
2023/03/28 22:06:38;;;;;;;4.40;3.80;;;;;;;5.40;100.00;101704.47;10392033;28;20552;-82
2023/03/28 22:11:39;;;;;;;5.07;3.03;;;;;;;5.43;100.00;101684.53;10377514;28;20030;-82
2023/03/28 22:16:39;;;;;;;10.70;4.13;;;;;;;5.41;100.00;101689.19;10375294;28;20498;-82
2023/03/28 22:21:40;;;;;;;6.97;3.88;;;;;;;5.42;100.00;101672.09;10391766;28;20037;-81
2023/03/28 22:26:40;;;;;;;3.92;3.38;;;;;;;5.40;100.00;101655.28;10377071;28;20054;-82
2023/03/28 22:31:41;;;;;;;4.25;3.85;;;;;;;5.47;100.00;101651.03;10391946;28;20033;-81
2023/03/28 22:36:42;;;;;;;3.88;3.25;;;;;;;5.49;100.00;101647.19;10374259;28;20401;-82
2023/03/28 22:41:44;;;;;;;8.00;3.63;;;;;;;5.49;100.00;101638.31;10375976;28;20029;-82
2023/03/28 22:46:45;;;;;;;5.40;3.47;;;;;;;5.48;100.00;101650.00;10375972;28;20536;-82
2023/03/28 22:51:45;;;;;;;3.35;3.03;;;;;;;5.49;100.00;101638.31;10390093;28;20050;-81
2023/03/28 22:56:46;;;;;;;7.40;4.07;;;;;;;5.55;100.00;101637.69;10390614;28;20088;-82
2023/03/28 23:01:47;;;;;;;4.10;2.25;;;;;;;5.67;100.00;101625.75;10374072;28;20545;-81
2023/03/28 23:06:49;;;;;;;4.45;3.25;;;;;;;5.70;100.00;101622.78;10374751;28;20112;-81
2023/03/28 23:11:50;;;;;;;8.48;3.55;;;;;;;5.79;100.00;101613.84;10389715;28;20417;-81
2023/03/28 23:16:51;;;;;;;2.90;2.70;;;;;;;5.90;100.00;101617.31;10374620;28;20038;-81
2023/03/28 23:21:53;;;;;;;4.13;3.42;;;;;;;5.94;100.00;101610.69;10356168;28;20030;-81
2023/03/28 23:26:54;;;;;;;2.80;2.60;;;;;;;6.01;100.00;101601.03;10372870;28;20057;-81